Time;durP1;ratioP1;P1;durP2;ratioP2;P2;SDS_P1;SDS_P2;PMS_P1;PMS_P2;Temp;Humidity;BMP_temperature;BMP_pressure;BME280_temperature;BME280_humidity;BME280_pressure;Samples;Min_cycle;Max_cycle;Signal;HPM_P1;HPM_P2
2021/04/23 06:59:40;;;;;;;4.55;2.33;;;;;;;;;;10727946;27;20031;-82
2021/04/23 07:04:50;;;;;;;6.00;2.45;;;;;;;;;;10696103;27;20038;-86
2021/04/23 07:10:14;;;;;;;7.63;3.00;;;;;;;;;;10693531;27;20450;-85
2021/04/23 07:15:18;;;;;;;6.43;2.78;;;;;;;;;;10679234;27;20042;-87
2021/04/23 07:20:56;;;;;;;7.25;2.72;;;;;;;;;;10692583;27;20068;-88
2021/04/23 07:26:09;;;;;;;4.63;2.45;;;;;;;;;;10707734;27;20082;-88
2021/04/23 07:31:41;;;;;;;5.97;3.10;;;;;;;;;;10679014;27;20019;-88
2021/04/23 07:37:15;;;;;;;6.57;2.55;;;;;;;;;;10679030;27;20047;-85
2021/04/23 07:42:41;;;;;;;4.68;2.75;;;;;;;;;;10622712;28;20054;-86
2021/04/23 07:53:40;;;;;;;3.60;2.28;;;;;;;;;;10694750;27;20023;-88
2021/04/23 07:58:41;;;;;;;5.57;2.30;;;;;;;;;;10674959;27;20027;-87
2021/04/23 08:03:43;;;;;;;5.55;2.50;;;;;;;;;;10675223;27;20148;-87
2021/04/23 08:08:47;;;;;;;4.38;2.78;;;;;;;;;;10680847;27;20094;-87
2021/04/23 08:13:48;;;;;;;5.13;2.50;;;;;;;;;;10681039;27;20030;-86
2021/04/23 08:18:53;;;;;;;4.95;2.30;;;;;;;;;;10680415;27;20030;-84
2021/04/23 08:24:00;;;;;;;3.85;2.30;;;;;;;;;;10681988;27;20019;-84
2021/04/23 08:29:06;;;;;;;3.53;2.10;;;;;;;;;;10684022;27;20030;-86
2021/04/23 08:34:17;;;;;;;3.92;2.15;;;;;;;;;;10684505;27;20022;-85
2021/04/23 08:39:18;;;;;;;6.25;2.33;;;;;;;;;;10679758;27;20429;-83
2021/04/23 08:44:19;;;;;;;4.82;2.38;;;;;;;;;;10681036;27;20050;-84
2021/04/23 08:49:21;;;;;;;5.60;2.35;;;;;;;;;;10681713;27;20399;-85
2021/04/23 08:54:24;;;;;;;3.75;2.28;;;;;;;;;;10680035;27;20142;-83
2021/04/23 08:59:30;;;;;;;4.70;2.13;;;;;;;;;;10677401;27;20023;-84
2021/04/23 09:04:52;;;;;;;3.80;2.30;;;;;;;;;;10672394;27;20038;-86
2021/04/23 09:09:53;;;;;;;4.32;2.42;;;;;;;;;;10679866;27;20033;-85
2021/04/23 09:15:02;;;;;;;4.85;2.20;;;;;;;;;;10675450;27;20029;-87
2021/04/23 09:20:18;;;;;;;;;;;;;;;;;;10692796;27;20026;-83
2021/04/23 09:26:14;;;;;;;3.28;2.05;;;;;;;;;;10667672;27;19952;-87
2021/04/23 09:31:15;;;;;;;;;;;;;;;;;;10676044;27;20053;-85
2021/04/23 09:36:25;;;;;;;4.13;2.20;;;;;;;;;;10676848;27;19903;-86
2021/04/23 09:41:34;;;;;;;4.32;2.00;;;;;;;;;;10678516;27;20090;-84
2021/04/23 09:46:37;;;;;;;5.00;2.10;;;;;;;;;;10681280;27;20043;-83
2021/04/23 09:51:39;;;;;;;4.75;2.08;;;;;;;;;;10699751;27;20035;-84
2021/04/23 09:56:47;;;;;;;4.40;2.17;;;;;;;;;;10672886;27;20019;-85
2021/04/23 10:01:51;;;;;;;3.95;1.90;;;;;;;;;;10693246;27;20027;-86
2021/04/23 10:07:13;;;;;;;5.65;2.28;;;;;;;;;;10679408;27;20030;-85
2021/04/23 10:12:37;;;;;;;3.53;1.90;;;;;;;;;;10687760;27;20039;-86
2021/04/23 10:17:38;;;;;;;7.50;2.35;;;;;;;;;;10678547;27;20025;-86
2021/04/23 10:22:39;;;;;;;4.57;2.10;;;;;;;;;;10668138;27;20027;-85
2021/04/23 10:27:45;;;;;;;4.15;2.20;;;;;;;;;;10650014;27;20046;-87
2021/04/23 10:32:56;;;;;;;3.22;1.92;;;;;;;;;;10669892;27;20027;-86
2021/04/23 10:38:01;;;;;;;6.18;2.63;;;;;;;;;;10669304;27;20027;-84
2021/04/23 10:43:28;;;;;;;4.78;2.70;;;;;;;;;;10698677;22;20022;-85
2021/04/23 10:54:28;;;;;;;;;;;;;;;;;;10520208;28;20478;-86
2021/04/23 11:05:15;;;;;;;3.55;2.20;;;;;;;;;;10514900;28;20025;-85
2021/04/23 11:10:56;;;;;;;7.30;2.65;;;;;;;;;;10546580;28;20033;-86
2021/04/23 11:16:31;;;;;;;5.82;2.83;;;;;;;;;;10525750;28;20041;-86
2021/04/23 11:21:53;;;;;;;5.25;2.25;;;;;;;;;;10503717;28;20549;-86
2021/04/23 11:27:26;;;;;;;4.72;1.92;;;;;;;;;;10507365;28;20086;-86
2021/04/23 11:32:57;;;;;;;4.22;1.90;;;;;;;;;;10428121;28;20087;-85
2021/04/23 11:44:16;;;;;;;4.10;2.40;;;;;;;;;;10428672;28;20431;-87
2021/04/23 12:12:58;;;;;;;4.17;2.00;;;;;;;;;;10261923;28;20031;-86
2021/04/23 12:18:54;;;;;;;5.35;2.15;;;;;;;;;;10287186;28;20035;-86
2021/04/23 12:30:25;;;;;;;3.85;2.30;;;;;;;;;;10305576;28;20023;-85
2021/04/23 12:47:02;;;;;;;4.13;2.17;;;;;;;;;;10520248;28;19951;-85
2021/04/23 12:52:29;;;;;;;2.75;1.60;;;;;;;;;;10526958;28;20033;-84
2021/04/23 12:58:21;;;;;;;3.05;2.00;;;;;;;;;;10530158;28;20041;-84
2021/04/23 13:42:30;;;;;;;4.32;1.83;;;;;;;;;;10479963;28;20032;-86
2021/04/23 15:29:43;;;;;;;3.75;2.67;;;;;;;;;;10519239;28;20017;-84
2021/04/23 15:35:19;;;;;;;5.20;2.03;;;;;;;;;;10525997;28;20032;-84
2021/04/23 15:46:37;;;;;;;4.35;2.03;;;;;;;;;;10398883;28;20037;-85
